ヤクーツク の空港の天気 - METARとTAF

ヤクーツク空港 ( UEEE / YKS ) - ロシア ヤクーツク
飛行場実況気象(Metar)
観測時間05/28 09:30 YAKT (05/28 00:30 UTC)
風向・風速西南西 7m/s
視程10km以上
天気現象
なし
気温20℃
湿度49%
気圧987hPa
METARUEEE 280030Z 24007MPS CAVOK 20/09 Q0987 R23L/09//60 NOSIG RMK QFE732
過去の天気等 Google飛行場航空写真 Wunderground天気予報

過去48時間のMETAR

飛行場予報(TAF)
発表時間: 5/28 08:00 YAKT (5/27 23:00 UTC)
予報対象時間: 28日9時 YAKT ~ 29日15時 YAKT
風向・風速西 7m/s 瞬間風速 13m/s
視程10km以上
全天の4割程度の積乱雲 雲底高度 610m
全天を覆う雲 雲底高度 2130m
28日9時 YAKT ~ 28日18時 YAKT に一時的に
風向・風速不定 16m/s
天気現象弱い雷雨
TAF UEEE 272300Z 2800/2906 26007G13MPS 9999 SCT020CB OVC070
TEMPO 2800/2809 VRB16MPS -TSRA